Flight Track Log - Related Links

Times and Time Zones

All times are in EDT time to prevent confusion due to time zone crossing. See the CSN6763 flight status page for this flight to view local times or setup timezone preferences in your user account.

Time Position Orientation Groundspeed Altitude Reporting Facility
EDT Latitude Longitude Course Direction KTS MPH feet Rate Location/Type
Wed 09:06:00 PM 22.7642 113.7992 354° North  Level Estimated
Wed 09:07:00 PM 22.8890 113.7860 354° North  Level Estimated
Wed 09:08:00 PM 23.0138 113.7728 354° North  Level Estimated
Wed 09:09:00 PM 23.1385 113.7596 354° North  Level Estimated
Wed 09:10:00 PM 23.2633 113.7463 354° North  Level Estimated
Wed 09:11:00 PM 23.3880 113.7330 354° North  Level Estimated
Wed 09:12:00 PM 23.5128 113.7197 354° North  Level Estimated
Wed 09:13:00 PM 23.6375 113.7063 354° North  Level Estimated
Wed 09:14:00 PM 23.7623 113.6930 354° North  Level Estimated
Wed 09:15:00 PM 23.8870 113.6796 354° North  Level Estimated
Wed 09:16:00 PM 24.0118 113.6661 354° North  Level Estimated
Wed 09:17:00 PM 24.1365 113.6527 354° North  Level Estimated
Wed 09:18:00 PM 24.2613 113.6392 354° North  Level Estimated
Wed 09:19:00 PM 24.3860 113.6257 354° North  Level Estimated
Wed 09:20:00 PM 24.5107 113.6122 354° North  Level Estimated
Wed 09:21:00 PM 24.6355 113.5986 354° North  Level Estimated
Wed 09:22:00 PM 24.7602 113.5850 354° North  Level Estimated
Wed 09:23:00 PM 24.8850 113.5714 354° North  Level Estimated
Wed 09:24:00 PM 25.0097 113.5578 354° North  Level Estimated
Wed 09:25:00 PM 25.1344 113.5441 354° North  Level Estimated
Wed 09:26:00 PM 25.2592 113.5304 354° North  Level Estimated
Wed 09:27:00 PM 25.3839 113.5167 354° North  Level Estimated
Wed 09:28:00 PM 25.5086 113.5030 354° North  Level Estimated
Wed 09:29:00 PM 25.6334 113.4892 354° North  Level Estimated
Wed 09:30:00 PM 25.7581 113.4754 354° North  Level Estimated
Wed 09:31:00 PM 25.8828 113.4615 354° North  Level Estimated
Wed 09:32:00 PM 26.0076 113.4477 354° North  Level Estimated
Wed 09:33:00 PM 26.1323 113.4338 354° North  Level Estimated
Wed 09:34:00 PM 26.2570 113.4199 354° North  Level Estimated
Wed 09:35:00 PM 26.3817 113.4059 354° North  Level Estimated
Wed 09:36:00 PM 26.5065 113.3919 354° North  Level Estimated
Wed 09:37:00 PM 26.6312 113.3779 354° North  Level Estimated
Wed 09:38:00 PM 26.7559 113.3639 354° North  Level Estimated
Wed 09:39:00 PM 26.8806 113.3498 354° North  Level Estimated
Wed 09:40:00 PM 27.0053 113.3357 354° North  Level Estimated
Wed 09:41:00 PM 27.1301 113.3215 354° North  Level Estimated
Wed 09:42:00 PM 27.2548 113.3074 354° North  Level Estimated
Wed 09:43:00 PM 27.3795 113.2932 354° North  Level Estimated
Wed 09:44:00 PM 27.5042 113.2789 354° North  Level Estimated
Wed 09:45:00 PM 27.6289 113.2646 354° North  Level Estimated
Wed 09:46:00 PM 27.7536 113.2504 354° North  Level Estimated
Wed 09:47:00 PM 27.8783 113.2360 354° North  Level Estimated
Wed 09:48:00 PM 28.0030 113.2217 354° North  Level Estimated
Wed 09:49:00 PM 28.1277 113.2073 354° North  Level Estimated
Wed 09:50:00 PM 28.2524 113.1928 354° North  Level Estimated
Wed 09:51:00 PM 28.3771 113.1784 354° North  Level Estimated
Wed 09:52:00 PM 28.5018 113.1639 354° North  Level Estimated
Wed 09:53:00 PM 28.6265 113.1493 354° North  Level Estimated
Wed 09:54:00 PM 28.7512 113.1348 354° North  Level Estimated
Wed 09:55:00 PM 28.8759 113.1202 354° North  Level Estimated
Wed 09:56:00 PM 29.0006 113.1055 354° North  Level Estimated
Wed 09:57:00 PM 29.1253 113.0909 354° North  Level Estimated
Wed 09:58:00 PM 29.2333 113.0781 354° North  Level Estimated
Wed 09:59:00 PM 29.3413 113.0654 354° North  Level Estimated
Wed 10:00:00 PM 29.4493 113.0526 354° North  Level Estimated
Wed 10:01:00 PM 29.5573 113.0397 354° North  Level Estimated
Wed 10:02:00 PM 29.6653 113.0269 354° North  Level Estimated
Wed 10:03:00 PM 29.7732 113.0140 354° North  Level Estimated
Wed 10:04:00 PM 29.8812 113.0011 354° North  Level Estimated
Wed 10:05:00 PM 29.9892 112.9882 354° North  Level Estimated
Wed 10:06:00 PM 30.0972 112.9752 354° North  Level Estimated
Wed 10:07:00 PM 30.2052 112.9622 354° North  Level Estimated
Wed 10:08:00 PM 30.3131 112.9492 354° North  Level Estimated
Wed 10:09:00 PM 30.4211 112.9362 354° North  Level Estimated
Wed 10:10:00 PM 30.5291 112.9231 354° North  Level Estimated
Wed 10:11:00 PM 30.6371 112.9100 354° North  Level Estimated
Wed 10:12:00 PM 30.7450 112.8969 354° North  Level Estimated
Wed 10:13:00 PM 30.8530 112.8837 354° North  Level Estimated
Wed 10:14:00 PM 30.9610 112.8705 354° North  Level Estimated
Wed 10:15:00 PM 31.0689 112.8573 354° North  Level Estimated
Wed 10:16:00 PM 31.1769 112.8441 354° North  Level Estimated
Wed 10:17:00 PM 31.2849 112.8308 354° North  Level Estimated
Wed 10:18:00 PM 31.3928 112.8175 354° North  Level Estimated
Wed 10:19:00 PM 31.5008 112.8041 354° North  Level Estimated
Wed 10:20:00 PM 31.6088 112.7908 354° North  Level Estimated
Wed 10:21:00 PM 31.7167 112.7774 354° North  Level Estimated
Wed 10:22:00 PM 31.8247 112.7639 354° North  Level Estimated
Wed 10:23:00 PM 31.9326 112.7505 354° North  Level Estimated
Wed 10:24:00 PM 32.0406 112.7370 354° North  Level Estimated
Wed 10:25:00 PM 32.1485 112.7234 354° North  Level Estimated
Wed 10:26:00 PM 32.2565 112.7099 354° North  Level Estimated
Wed 10:27:00 PM 32.3644 112.6963 354° North  Level Estimated
Wed 10:28:00 PM 32.4724 112.6827 354° North  Level Estimated
Wed 10:29:00 PM 32.5803 112.6690 354° North  Level Estimated
Wed 10:30:00 PM 32.6883 112.6553 354° North  Level Estimated
Wed 10:31:00 PM 32.7962 112.6416 354° North  Level Estimated
Wed 10:32:00 PM 32.9042 112.6278 354° North  Level Estimated
Wed 10:33:00 PM 33.0121 112.6140 354° North  Level Estimated
Wed 10:34:00 PM 33.1201 112.6002 354° North  Level Estimated
Wed 10:35:00 PM 33.2280 112.5863 354° North  Level Estimated
Wed 10:36:00 PM 33.3359 112.5725 354° North  Level Estimated
Wed 10:37:00 PM 33.4439 112.5585 354° North  Level Estimated
Wed 10:38:00 PM 33.5518 112.5446 354° North  Level Estimated
Wed 10:39:00 PM 33.6598 112.5306 354° North  Level Estimated
Wed 10:40:00 PM 33.7677 112.5165 354° North  Level Estimated
Wed 10:41:00 PM 33.8756 112.5025 354° North  Level Estimated
Wed 10:42:00 PM 33.9836 112.4884 354° North  Level Estimated
Wed 10:43:00 PM 34.0915 112.4742 354° North  Level Estimated
Wed 10:44:00 PM 34.1994 112.4601 354° North  Level Estimated
Wed 10:45:00 PM 34.3073 112.4458 354° North  Level Estimated
Wed 10:46:00 PM 34.4152 112.4316 354° North  Level Estimated
Wed 10:47:00 PM 34.5232 112.4173 354° North  Level Estimated
Wed 10:48:00 PM 34.6311 112.4030 354° North  Level Estimated
Wed 10:49:00 PM 34.7390 112.3886 354° North  Level Estimated
Wed 10:50:00 PM 34.7411 112.3883 354° North  Level Estimated
Wed 10:51:00 PM 34.7411 112.3883 68° East  Level Estimated
Wed 10:52:00 PM 34.7411 112.3883 68° East  Level Estimated
Wed 10:53:00 PM 34.7411 112.3883 68° East  Level Estimated
Wed 10:54:00 PM 34.7411 112.3883 68° East  Level Estimated
Wed 10:55:00 PM 34.7411 112.3883 68° East  Level Estimated
Wed 10:56:00 PM 34.7411 112.3883 68° East  Level Estimated
Wed 10:57:00 PM 34.7411 112.3883 68° East  Level Estimated
Wed 10:58:00 PM 34.7411 112.3883 68° East  Level Estimated

Login

Don't have an account? Register now (free) for customized features, flight alerts, and more!